createdAt,value
2019-05-17T00:02:03.611Z,67.50
2019-05-17T00:04:36.365Z,67.13
2019-05-17T00:07:08.704Z,65.60
2019-05-17T00:09:41.057Z,58.37
2019-05-17T00:12:13.470Z,55.87
2019-05-17T00:14:47.297Z,51.10
2019-05-17T00:17:19.147Z,45.77
2019-05-17T00:19:51.210Z,48.27
2019-05-17T00:22:23.144Z,52.00
2019-05-17T00:24:56.825Z,52.17
2019-05-17T00:27:29.064Z,61.83
2019-05-17T00:30:01.204Z,59.53
2019-05-17T00:32:36.930Z,60.33
2019-05-17T00:35:09.076Z,58.20
2019-05-17T00:37:41.248Z,50.03
2019-05-17T00:40:16.384Z,54.20
2019-05-17T00:42:47.491Z,54.03
2019-05-17T00:45:19.435Z,58.97
2019-05-17T00:47:51.450Z,54.97
2019-05-17T00:50:23.430Z,50.50
2019-05-17T00:52:56.642Z,51.93
2019-05-17T00:55:28.846Z,59.37
2019-05-17T00:58:00.801Z,59.87
2019-05-17T01:00:32.873Z,51.07
2019-05-17T01:03:06.933Z,47.33
2019-05-17T01:05:38.610Z,42.57
2019-05-17T01:08:10.844Z,60.17
2019-05-17T01:10:43.014Z,60.80
2019-05-17T01:13:17.132Z,60.60
2019-05-17T01:15:48.765Z,63.77
2019-05-17T01:18:21.004Z,62.50
2019-05-17T01:20:53.021Z,63.30
2019-05-17T01:23:26.983Z,60.37
2019-05-17T01:25:58.781Z,65.13
2019-05-17T01:28:30.788Z,60.23
2019-05-17T01:31:02.816Z,63.77
2019-05-17T01:33:36.701Z,64.83
2019-05-17T01:36:08.478Z,59.57
2019-05-17T01:38:41.154Z,62.47
2019-05-17T01:41:13.200Z,64.73
2019-05-17T01:43:47.295Z,60.87
2019-05-17T01:46:18.898Z,60.67
2019-05-17T01:48:51.262Z,61.90
2019-05-17T01:51:23.260Z,54.03
2019-05-17T01:53:57.221Z,57.67
2019-05-17T01:56:28.963Z,54.30
2019-05-17T01:59:01.250Z,50.17
2019-05-17T02:01:33.375Z,55.10
2019-05-17T02:04:06.627Z,59.03
2019-05-17T02:06:38.905Z,60.70
2019-05-17T02:09:10.890Z,60.40
2019-05-17T02:11:42.906Z,62.17
2019-05-17T02:14:16.565Z,60.50
2019-05-17T02:16:48.737Z,68.07
2019-05-17T02:19:20.702Z,61.47
2019-05-17T02:21:52.724Z,68.53
2019-05-17T02:24:24.759Z,71.30
2019-05-17T02:26:57.068Z,68.17
2019-05-17T02:29:29.222Z,71.53
2019-05-17T02:32:03.914Z,73.57
2019-05-17T02:34:35.120Z,77.43
2019-05-17T02:37:07.102Z,82.17
2019-05-17T02:39:56.535Z,88.30
2019-05-17T02:42:13.920Z,98.23
2019-05-17T02:44:45.983Z,90.07
2019-05-17T02:47:17.951Z,88.07
2019-05-17T02:49:52.375Z,85.33
2019-05-17T02:52:23.882Z,81.30
2019-05-17T02:54:55.881Z,79.97
2019-05-17T02:57:27.848Z,80.50
2019-05-17T03:00:04.028Z,80.27
2019-05-17T03:02:34.330Z,83.00
2019-05-17T03:05:07.095Z,75.87
2019-05-17T03:07:39.104Z,78.83
2019-05-17T03:10:22.179Z,80.37
2019-05-17T03:12:45.361Z,81.70
2019-05-17T03:15:17.325Z,81.40
2019-05-17T03:17:49.291Z,72.17
2019-05-17T03:20:23.273Z,78.23
2019-05-17T03:22:55.013Z,78.00
2019-05-17T03:25:26.981Z,72.27
2019-05-17T03:27:58.949Z,79.50
2019-05-17T03:30:36.757Z,69.87
2019-05-17T03:33:07.800Z,76.37
2019-05-17T03:35:45.201Z,80.83
2019-05-17T03:38:14.230Z,88.83
2019-05-17T03:41:07.494Z,90.97
2019-05-17T03:43:22.597Z,103.47
2019-05-17T03:45:53.866Z,95.43
2019-05-17T03:48:25.894Z,93.33
2019-05-17T03:50:58.009Z,95.43
2019-05-17T03:53:33.160Z,95.73
2019-05-17T03:56:04.066Z,102.93
2019-05-17T03:58:36.021Z,109.73
2019-05-17T04:01:08.171Z,113.83
2019-05-17T04:03:43.499Z,109.37
2019-05-17T04:06:14.144Z,125.93
2019-05-17T04:08:46.097Z,119.67
2019-05-17T04:11:27.831Z,124.77
2019-05-17T04:13:53.774Z,116.90
2019-05-17T04:16:25.499Z,103.30
2019-05-17T04:18:57.460Z,101.10
2019-05-17T04:21:29.469Z,88.00
2019-05-17T04:24:03.460Z,79.43
2019-05-17T04:26:35.474Z,101.00
2019-05-17T04:29:07.492Z,112.33
2019-05-17T04:31:43.108Z,100.47
2019-05-17T04:34:13.835Z,102.63
2019-05-17T04:36:45.937Z,103.87
2019-05-17T04:39:17.960Z,111.87
2019-05-17T04:41:54.644Z,109.60
2019-05-17T04:44:24.083Z,105.73
2019-05-17T04:46:56.072Z,119.20
2019-05-17T04:49:28.088Z,107.10
2019-05-17T04:52:03.096Z,124.53
2019-05-17T04:54:33.895Z,120.43
2019-05-17T04:57:05.876Z,112.00
2019-05-17T04:59:37.838Z,121.63
2019-05-17T05:02:12.902Z,122.97
2019-05-17T05:04:43.916Z,107.73
2019-05-17T05:07:16.061Z,115.43
2019-05-17T05:09:48.097Z,107.43
2019-05-17T05:12:22.864Z,100.90
2019-05-17T05:14:54.109Z,103.70
2019-05-17T05:17:26.096Z,100.77
2019-05-17T05:19:58.065Z,102.67
2019-05-17T05:22:32.966Z,96.13
2019-05-17T05:25:06.410Z,98.13
2019-05-17T05:27:38.417Z,94.13
2019-05-17T05:30:12.067Z,85.00
2019-05-17T05:32:44.327Z,97.60
2019-05-17T05:35:16.320Z,83.93
2019-05-17T05:37:48.268Z,84.87
2019-05-17T05:40:21.408Z,85.27
2019-05-17T05:42:53.512Z,75.17
2019-05-17T05:45:25.471Z,79.20
2019-05-17T05:47:57.450Z,80.60
2019-05-17T05:50:32.186Z,85.73
2019-05-17T05:53:03.174Z,79.73
2019-05-17T05:55:36.098Z,86.07
2019-05-17T05:58:08.106Z,86.87
2019-05-17T06:00:42.539Z,89.03
2019-05-17T06:03:13.893Z,89.37
2019-05-17T06:05:45.944Z,91.40
2019-05-17T06:08:18.000Z,80.37
2019-05-17T06:10:52.893Z,80.70
2019-05-17T06:13:23.686Z,90.77
2019-05-17T06:15:55.944Z,96.47
2019-05-17T06:18:28.011Z,103.60
2019-05-17T06:21:02.736Z,102.03
2019-05-17T06:23:34.782Z,89.33
2019-05-17T06:26:06.799Z,96.00
2019-05-17T06:28:39.615Z,97.20
2019-05-17T06:31:11.766Z,100.00
2019-05-17T06:33:43.836Z,93.87
2019-05-17T06:36:15.871Z,96.13
2019-05-17T06:38:47.938Z,100.87
2019-05-17T06:41:21.528Z,96.90
2019-05-17T06:43:53.710Z,100.83
2019-05-17T06:46:25.801Z,90.67
2019-05-17T06:48:57.863Z,100.37
2019-05-17T06:51:31.601Z,93.27
2019-05-17T06:54:03.713Z,91.50
2019-05-17T06:56:35.772Z,96.60
2019-05-17T06:59:07.740Z,99.67
2019-05-17T07:01:40.979Z,92.90
2019-05-17T07:04:13.179Z,80.47
2019-05-17T07:06:46.842Z,89.90
2019-05-17T07:09:19.537Z,82.07
2019-05-17T07:11:51.611Z,89.43
2019-05-17T07:14:23.622Z,89.83
2019-05-17T07:16:55.680Z,88.57
2019-05-17T07:19:30.257Z,79.03
2019-05-17T07:22:02.235Z,85.53
2019-05-17T07:24:34.251Z,85.87
2019-05-17T07:27:06.292Z,83.57
2019-05-17T07:29:40.200Z,85.90
2019-05-17T07:32:12.140Z,87.77
2019-05-17T07:34:44.513Z,83.50
2019-05-17T07:37:16.504Z,78.50
2019-05-17T07:40:00.500Z,81.80
2019-05-17T07:42:22.260Z,78.20
2019-05-17T07:44:54.297Z,79.43
2019-05-17T07:47:26.343Z,74.50
2019-05-17T07:50:00.917Z,66.17
2019-05-17T07:52:34.007Z,75.47
2019-05-17T07:55:07.201Z,73.57
2019-05-17T07:57:40.867Z,71.90
2019-05-17T08:00:16.826Z,62.03
2019-05-17T08:02:50.631Z,78.10
2019-05-17T08:05:22.684Z,64.00
2019-05-17T08:07:54.666Z,65.37
2019-05-17T08:10:26.719Z,65.60
2019-05-17T08:13:00.198Z,59.23
2019-05-17T08:15:32.181Z,52.15
2019-05-17T08:18:04.209Z,49.33
2019-05-17T08:20:36.323Z,44.98
2019-05-17T08:23:10.536Z,36.03
2019-05-17T08:25:52.635Z,41.30
2019-05-17T08:28:16.166Z,33.40
2019-05-17T08:30:50.143Z,28.92
2019-05-17T08:33:21.982Z,32.53
2019-05-17T08:35:54.013Z,29.72
2019-05-17T08:38:26.068Z,31.73
2019-05-17T08:41:00.514Z,30.95
2019-05-17T08:43:43.104Z,31.60
2019-05-17T08:46:05.618Z,31.27
2019-05-17T08:48:40.125Z,32.13
2019-05-17T08:51:12.237Z,31.20
2019-05-17T08:53:44.246Z,35.90
2019-05-17T08:56:16.231Z,37.60
2019-05-17T08:58:49.805Z,33.78
2019-05-17T09:01:22.014Z,29.45
2019-05-17T09:03:54.010Z,30.35
2019-05-17T09:06:29.291Z,34.83
2019-05-17T09:09:02.311Z,29.45
2019-05-17T09:11:34.344Z,37.15
2019-05-17T09:14:06.379Z,33.42
2019-05-17T09:16:40.324Z,32.33
2019-05-17T09:19:12.508Z,34.92
2019-05-17T09:21:44.584Z,38.73
2019-05-17T09:24:16.665Z,38.10
2019-05-17T09:26:49.235Z,32.10
2019-05-17T09:29:21.474Z,33.40
2019-05-17T09:31:53.469Z,33.20
2019-05-17T09:34:25.507Z,43.38
2019-05-17T09:37:00.148Z,40.73
2019-05-17T09:39:31.659Z,39.40
2019-05-17T09:42:04.635Z,35.95
2019-05-17T09:44:36.636Z,34.73
2019-05-17T09:47:12.638Z,39.90
2019-05-17T09:49:44.778Z,37.55
2019-05-17T09:52:16.790Z,34.00
2019-05-17T09:54:50.452Z,33.23
2019-05-17T09:57:22.692Z,34.58
2019-05-17T09:59:55.986Z,33.83
2019-05-17T10:02:28.527Z,34.40
2019-05-17T10:05:01.263Z,30.55
2019-05-17T10:07:33.266Z,30.35
2019-05-17T10:10:06.075Z,26.15
2019-05-17T10:12:40.448Z,24.20
2019-05-17T10:15:12.746Z,23.15
2019-05-17T10:17:44.728Z,26.27
2019-05-17T10:20:16.700Z,20.92
2019-05-17T10:22:50.447Z,25.25
2019-05-17T10:25:22.774Z,25.95
2019-05-17T10:27:54.741Z,22.05
2019-05-17T10:30:26.876Z,18.30
2019-05-17T10:33:00.077Z,16.15
2019-05-17T10:35:32.260Z,13.83
2019-05-17T10:38:04.280Z,12.93
2019-05-17T10:40:36.376Z,14.00
2019-05-17T10:43:10.072Z,19.55
2019-05-17T10:45:42.169Z,26.75
2019-05-17T10:48:14.772Z,35.08
2019-05-17T10:50:46.802Z,37.63
2019-05-17T10:53:20.435Z,41.98
2019-05-17T10:55:52.812Z,40.92
2019-05-17T10:58:24.907Z,35.65
2019-05-17T11:00:57.152Z,19.40
2019-05-17T11:03:29.645Z,22.10
2019-05-17T11:06:02.254Z,17.10
2019-05-17T11:08:34.644Z,16.70
2019-05-17T11:11:06.706Z,13.65
2019-05-17T11:13:38.812Z,13.53
2019-05-17T11:16:11.709Z,13.88
2019-05-17T11:18:43.696Z,11.28
2019-05-17T11:21:16.069Z,19.73
2019-05-17T11:23:48.104Z,10.75
2019-05-17T11:26:22.773Z,11.35
2019-05-17T11:28:54.766Z,24.18
2019-05-17T11:31:26.782Z,24.43
2019-05-17T11:33:58.782Z,12.05
2019-05-17T11:36:31.310Z,13.05
2019-05-17T11:39:11.278Z,14.30
2019-05-17T11:41:43.448Z,19.82
2019-05-17T11:44:15.554Z,13.03
2019-05-17T11:46:47.597Z,11.97
2019-05-17T11:49:21.169Z,12.28
2019-05-17T11:51:53.249Z,12.88
2019-05-17T11:54:26.519Z,14.05
2019-05-17T11:57:00.456Z,15.32
2019-05-17T11:59:32.680Z,15.38
2019-05-17T12:02:09.093Z,17.55
2019-05-17T12:04:41.110Z,17.00
2019-05-17T12:07:13.128Z,21.02
2019-05-17T12:09:45.583Z,17.17
2019-05-17T12:12:17.627Z,18.93
2019-05-17T12:14:50.311Z,19.20
2019-05-17T12:17:22.330Z,24.73
2019-05-17T12:19:55.398Z,17.37
2019-05-17T12:22:27.473Z,17.07
2019-05-17T12:25:00.076Z,18.70
2019-05-17T12:27:32.733Z,19.37
2019-05-17T12:30:05.421Z,20.65
2019-05-17T12:32:38.288Z,20.10
2019-05-17T12:35:10.522Z,19.67
2019-05-17T12:37:42.649Z,23.85
2019-05-17T12:40:15.380Z,20.43
2019-05-17T12:42:47.346Z,17.75
2019-05-17T12:45:19.425Z,17.70
2019-05-17T12:47:51.432Z,16.50
2019-05-17T12:50:23.486Z,17.52
2019-05-17T12:52:55.932Z,16.45
2019-05-17T12:55:27.923Z,16.55
2019-05-17T12:58:00.374Z,15.38
2019-05-17T13:00:32.596Z,15.43
2019-05-17T13:03:05.442Z,18.00
2019-05-17T13:05:37.459Z,16.15
2019-05-17T13:08:10.041Z,17.55
2019-05-17T13:10:42.077Z,17.42
2019-05-17T13:13:14.043Z,17.30
2019-05-17T13:15:46.217Z,15.98
2019-05-17T13:18:18.309Z,16.67
2019-05-17T13:20:50.380Z,16.40
2019-05-17T13:23:22.434Z,19.07
2019-05-17T13:25:54.598Z,14.60
2019-05-17T13:28:26.653Z,15.80
2019-05-17T13:30:58.688Z,14.80
2019-05-17T13:33:30.760Z,14.90
2019-05-17T13:36:02.920Z,16.82
2019-05-17T13:38:34.985Z,20.52
2019-05-17T13:41:07.045Z,21.27
2019-05-17T13:43:39.126Z,17.52
2019-05-17T13:46:12.014Z,18.25
2019-05-17T13:48:44.116Z,15.48
2019-05-17T13:51:16.127Z,16.60
2019-05-17T13:53:48.117Z,15.68
2019-05-17T13:56:20.411Z,14.40
2019-05-17T13:58:54.642Z,15.50
2019-05-17T14:01:26.698Z,13.93
2019-05-17T14:03:58.707Z,19.27
2019-05-17T14:06:30.703Z,23.97
2019-05-17T14:09:02.916Z,16.67
2019-05-17T14:11:36.557Z,17.27
2019-05-17T14:14:09.702Z,15.32
2019-05-17T14:16:41.715Z,14.87
2019-05-17T14:19:13.788Z,14.13
2019-05-17T14:21:45.796Z,14.68
2019-05-17T14:24:17.780Z,18.45
2019-05-17T14:26:49.772Z,13.45
2019-05-17T14:29:21.989Z,15.40
2019-05-17T14:31:54.371Z,14.10
2019-05-17T14:34:26.376Z,15.25
2019-05-17T14:36:58.376Z,16.15
2019-05-17T14:39:30.632Z,15.48
2019-05-17T14:42:02.816Z,15.97
2019-05-17T14:44:34.792Z,23.47
2019-05-17T14:47:06.813Z,18.93
2019-05-17T14:49:38.850Z,19.43
2019-05-17T14:52:10.840Z,20.60
2019-05-17T14:54:42.889Z,18.33
2019-05-17T14:57:14.886Z,19.30
2019-05-17T14:59:46.843Z,20.93
2019-05-17T15:02:18.891Z,21.07
2019-05-17T15:04:51.206Z,25.47
2019-05-17T15:07:23.212Z,24.93
2019-05-17T15:09:55.269Z,22.27
2019-05-17T15:12:28.901Z,22.40
2019-05-17T15:15:01.190Z,22.97
2019-05-17T15:17:35.253Z,22.73
2019-05-17T15:20:07.334Z,27.73
2019-05-17T15:22:40.391Z,23.00
2019-05-17T15:25:12.515Z,16.30
2019-05-17T15:27:44.585Z,17.73
2019-05-17T15:30:16.868Z,18.70
2019-05-17T15:32:48.876Z,19.90
2019-05-17T15:35:20.847Z,24.13
2019-05-17T15:37:52.832Z,27.30
2019-05-17T15:40:24.832Z,28.17
2019-05-17T15:42:56.820Z,74.87
2019-05-17T15:45:28.819Z,27.37
2019-05-17T15:48:01.095Z,32.70
2019-05-17T15:50:33.613Z,26.13
2019-05-17T15:53:05.646Z,27.93
2019-05-17T15:55:38.860Z,28.23
2019-05-17T15:58:11.114Z,28.33
2019-05-17T16:00:43.417Z,28.00
2019-05-17T16:03:15.435Z,29.13
2019-05-17T16:05:47.472Z,22.40
2019-05-17T16:08:19.452Z,26.03
2019-05-17T16:10:51.477Z,21.93
2019-05-17T16:13:23.457Z,20.83
2019-05-17T16:15:55.438Z,20.77
2019-05-17T16:18:27.418Z,28.00
2019-05-17T16:21:00.071Z,26.00
2019-05-17T16:23:32.098Z,26.43
2019-05-17T16:26:04.526Z,25.27
2019-05-17T16:28:36.667Z,26.13
2019-05-17T16:31:08.676Z,29.33
2019-05-17T16:33:40.946Z,23.90
2019-05-17T16:36:12.922Z,25.27
2019-05-17T16:38:44.929Z,19.80
2019-05-17T16:41:16.891Z,24.63
2019-05-17T16:43:48.996Z,27.83
2019-05-17T16:46:21.083Z,22.57
2019-05-17T16:48:53.119Z,20.33
2019-05-17T16:51:25.082Z,39.53
2019-05-17T16:53:57.146Z,24.67
2019-05-17T16:56:29.196Z,24.47
2019-05-17T16:59:01.320Z,25.23
2019-05-17T17:01:33.326Z,23.53
2019-05-17T17:04:05.628Z,22.93
2019-05-17T17:06:37.776Z,21.53
2019-05-17T17:09:10.292Z,19.27
2019-05-17T17:11:45.746Z,19.23
2019-05-17T17:14:17.496Z,16.00
2019-05-17T17:16:49.514Z,22.87
2019-05-17T17:19:21.466Z,39.30
2019-05-17T17:21:53.479Z,22.23
2019-05-17T17:24:25.495Z,31.13
2019-05-17T17:26:57.452Z,21.47
2019-05-17T17:29:29.516Z,23.70
2019-05-17T17:32:01.570Z,17.77
2019-05-17T17:34:33.980Z,22.17
2019-05-17T17:37:07.458Z,19.73
2019-05-17T17:39:39.488Z,17.43
2019-05-17T17:42:11.585Z,18.33
2019-05-17T17:44:43.839Z,17.27
2019-05-17T17:47:15.984Z,20.37
2019-05-17T17:49:47.951Z,16.87
2019-05-17T17:52:20.251Z,22.53
2019-05-17T17:54:53.607Z,19.70
2019-05-17T17:57:25.672Z,19.90
2019-05-17T17:59:57.656Z,24.67
2019-05-17T18:02:29.703Z,21.67
2019-05-17T18:05:01.673Z,19.73
2019-05-17T18:07:33.807Z,22.30
2019-05-17T18:10:06.689Z,19.17
2019-05-17T18:12:40.669Z,19.93
2019-05-17T18:15:13.905Z,20.93
2019-05-17T18:17:45.916Z,21.90
2019-05-17T18:20:17.904Z,25.53
2019-05-17T18:22:50.274Z,23.80
2019-05-17T18:25:22.339Z,25.23
2019-05-17T18:27:54.306Z,24.93
2019-05-17T18:30:26.337Z,24.57
2019-05-17T18:32:58.349Z,27.00
2019-05-17T18:35:30.726Z,27.97
2019-05-17T18:38:03.112Z,34.00
2019-05-17T18:40:35.128Z,31.90
2019-05-17T18:43:07.269Z,30.17
2019-05-17T18:45:39.310Z,29.10
2019-05-17T18:48:11.287Z,24.43
2019-05-17T18:50:43.318Z,25.57
2019-05-17T18:53:16.946Z,24.77
2019-05-17T18:55:49.089Z,26.77
2019-05-17T18:58:21.153Z,22.67
2019-05-17T19:00:53.163Z,21.93
2019-05-17T19:03:25.400Z,22.47
2019-05-17T19:05:57.396Z,26.53
2019-05-17T19:08:30.021Z,25.73
2019-05-17T19:11:02.084Z,26.07
2019-05-17T19:13:34.052Z,27.47
2019-05-17T19:16:06.206Z,29.00
2019-05-17T19:18:38.227Z,29.70
2019-05-17T19:21:11.976Z,27.83
2019-05-17T19:23:43.990Z,36.30
2019-05-17T19:26:15.953Z,29.83
2019-05-17T19:28:47.942Z,33.57
2019-05-17T19:31:19.981Z,45.13
2019-05-17T19:33:52.073Z,28.83
2019-05-17T19:36:24.032Z,26.93
2019-05-17T19:38:56.040Z,25.97
2019-05-17T19:41:28.044Z,29.43
2019-05-17T19:43:59.999Z,25.50
2019-05-17T19:46:32.126Z,28.33
2019-05-17T19:49:04.186Z,55.57
2019-05-17T19:51:36.193Z,29.97
2019-05-17T19:54:08.222Z,27.47
2019-05-17T19:56:40.690Z,26.87
2019-05-17T19:59:12.770Z,24.73
2019-05-17T20:01:44.872Z,25.47
2019-05-17T20:04:16.915Z,50.87
2019-05-17T20:06:48.966Z,44.53
2019-05-17T20:09:21.224Z,35.80
2019-05-17T20:11:53.257Z,37.37
2019-05-17T20:14:25.230Z,32.90
2019-05-17T20:16:57.281Z,36.47
2019-05-17T20:19:29.312Z,36.67
2019-05-17T20:22:01.384Z,33.00
2019-05-17T20:24:33.350Z,31.17
2019-05-17T20:27:05.373Z,27.80
2019-05-17T20:29:37.392Z,33.60
2019-05-17T20:32:09.970Z,33.77
2019-05-17T20:34:42.086Z,29.17
2019-05-17T20:37:14.050Z,36.80
2019-05-17T20:39:46.019Z,40.03
2019-05-17T20:42:18.051Z,44.53
2019-05-17T20:44:50.621Z,35.70
2019-05-17T20:47:22.727Z,35.97
2019-05-17T20:49:54.724Z,35.60
2019-05-17T20:52:26.746Z,38.13
2019-05-17T20:54:58.789Z,42.60
2019-05-17T20:57:31.211Z,36.93
2019-05-17T21:00:03.339Z,37.70
2019-05-17T21:02:35.342Z,33.30
2019-05-17T21:05:08.378Z,34.87
2019-05-17T21:07:40.468Z,36.30
2019-05-17T21:10:12.654Z,36.93
2019-05-17T21:12:44.761Z,36.30
2019-05-17T21:15:17.428Z,36.53
2019-05-17T21:17:56.335Z,29.63
2019-05-17T21:20:28.698Z,31.23
2019-05-17T21:23:01.037Z,34.93
2019-05-17T21:25:34.137Z,30.40
2019-05-17T21:28:06.126Z,25.27
2019-05-17T21:30:38.240Z,21.70
2019-05-17T21:33:10.211Z,36.03
2019-05-17T21:35:42.207Z,31.50
2019-05-17T21:38:14.259Z,34.67
2019-05-17T21:40:46.244Z,34.20
2019-05-17T21:43:18.310Z,31.33
2019-05-17T21:46:02.644Z,32.07
2019-05-17T21:48:24.009Z,29.07
2019-05-17T21:50:56.011Z,28.97
2019-05-17T21:53:27.988Z,26.50
2019-05-17T21:56:00.314Z,22.80
2019-05-17T21:58:33.881Z,34.57
2019-05-17T22:01:20.192Z,47.57
2019-05-17T22:03:52.574Z,39.93
2019-05-17T22:06:24.825Z,40.33
2019-05-17T22:08:56.751Z,46.03
2019-05-17T22:11:28.814Z,53.27
2019-05-17T22:14:01.197Z,57.03
2019-05-17T22:16:33.177Z,58.03
2019-05-17T22:19:05.204Z,56.80
2019-05-17T22:21:37.214Z,50.40
2019-05-17T22:24:09.207Z,52.87
2019-05-17T22:26:41.366Z,69.80
2019-05-17T22:29:13.424Z,66.03
2019-05-17T22:31:45.430Z,67.27
2019-05-17T22:34:17.497Z,74.40
2019-05-17T22:36:49.618Z,80.40
2019-05-17T22:39:22.244Z,93.37
2019-05-17T22:41:54.240Z,104.43
2019-05-17T22:44:26.356Z,106.20
2019-05-17T22:46:58.381Z,99.80
2019-05-17T22:49:30.403Z,110.03
2019-05-17T22:52:02.389Z,104.40
2019-05-17T22:54:34.343Z,109.93
2019-05-17T22:57:06.411Z,115.27
2019-05-17T22:59:38.510Z,104.07
2019-05-17T23:02:10.915Z,108.77
2019-05-17T23:04:42.924Z,110.60
2019-05-17T23:07:14.905Z,102.93
2019-05-17T23:09:46.904Z,102.73
2019-05-17T23:12:18.950Z,93.97
2019-05-17T23:14:51.411Z,89.77
2019-05-17T23:17:23.415Z,103.97
2019-05-17T23:19:55.507Z,78.83
2019-05-17T23:22:27.532Z,91.63
2019-05-17T23:24:59.506Z,86.30
2019-05-17T23:27:31.517Z,75.93
2019-05-17T23:30:03.587Z,78.17
2019-05-17T23:32:35.595Z,77.93
2019-05-17T23:35:08.969Z,88.47
2019-05-17T23:37:41.113Z,93.17
2019-05-17T23:40:13.534Z,80.77
2019-05-17T23:42:45.569Z,82.50
2019-05-17T23:45:17.524Z,80.37
2019-05-17T23:47:49.546Z,78.43
2019-05-17T23:50:21.662Z,91.50
2019-05-17T23:52:53.635Z,88.67
2019-05-17T23:55:25.609Z,83.13
2019-05-17T23:57:57.574Z,76.53
